sensor_id;sensor_type;location;lat;lon;timestamp;temperature;humidity
78704;SHT31;68034;51.966;5.676;2023-05-07T00:01:52;18.3;70.1
78704;SHT31;68034;51.966;5.676;2023-05-07T00:04:20;18.3;70.4
78704;SHT31;68034;51.966;5.676;2023-05-07T00:06:49;18.2;69.7
78704;SHT31;68034;51.966;5.676;2023-05-07T00:09:18;18.2;69.6
78704;SHT31;68034;51.966;5.676;2023-05-07T00:11:46;18.2;69.9
78704;SHT31;68034;51.966;5.676;2023-05-07T00:14:15;18.2;69.7
78704;SHT31;68034;51.966;5.676;2023-05-07T00:16:44;18.2;70.0
78704;SHT31;68034;51.966;5.676;2023-05-07T00:19:12;18.2;69.8
78704;SHT31;68034;51.966;5.676;2023-05-07T00:21:41;18.2;69.6
78704;SHT31;68034;51.966;5.676;2023-05-07T00:24:10;18.2;70.1
78704;SHT31;68034;51.966;5.676;2023-05-07T00:26:38;18.2;69.8
78704;SHT31;68034;51.966;5.676;2023-05-07T00:29:09;18.2;69.3
78704;SHT31;68034;51.966;5.676;2023-05-07T00:31:38;18.1;69.7
78704;SHT31;68034;51.966;5.676;2023-05-07T00:34:06;18.1;69.5
78704;SHT31;68034;51.966;5.676;2023-05-07T00:36:35;18.1;69.9
78704;SHT31;68034;51.966;5.676;2023-05-07T00:39:04;18.1;70.2
78704;SHT31;68034;51.966;5.676;2023-05-07T00:41:33;18.1;70.2
78704;SHT31;68034;51.966;5.676;2023-05-07T00:44:02;18.0;69.9
78704;SHT31;68034;51.966;5.676;2023-05-07T00:46:32;18.0;70.1
78704;SHT31;68034;51.966;5.676;2023-05-07T00:49:02;18.0;70.6
78704;SHT31;68034;51.966;5.676;2023-05-07T00:51:33;18.0;70.2
78704;SHT31;68034;51.966;5.676;2023-05-07T00:54:02;17.9;69.7
78704;SHT31;68034;51.966;5.676;2023-05-07T00:56:31;17.9;70.0
78704;SHT31;68034;51.966;5.676;2023-05-07T00:59:03;17.9;69.6
78704;SHT31;68034;51.966;5.676;2023-05-07T01:01:32;17.9;69.9
78704;SHT31;68034;51.966;5.676;2023-05-07T01:04:00;17.9;70.3
78704;SHT31;68034;51.966;5.676;2023-05-07T01:06:33;17.9;70.7
78704;SHT31;68034;51.966;5.676;2023-05-07T01:09:02;17.9;70.2
78704;SHT31;68034;51.966;5.676;2023-05-07T01:11:33;17.9;70.1
78704;SHT31;68034;51.966;5.676;2023-05-07T01:14:02;17.9;70.4
78704;SHT31;68034;51.966;5.676;2023-05-07T01:16:31;17.9;70.1
78704;SHT31;68034;51.966;5.676;2023-05-07T01:19:00;17.9;69.4
78704;SHT31;68034;51.966;5.676;2023-05-07T01:21:34;17.8;69.9
78704;SHT31;68034;51.966;5.676;2023-05-07T01:24:06;17.8;69.5
78704;SHT31;68034;51.966;5.676;2023-05-07T01:26:34;17.8;70.4
78704;SHT31;68034;51.966;5.676;2023-05-07T01:29:03;17.8;70.1
78704;SHT31;68034;51.966;5.676;2023-05-07T01:31:32;17.9;69.6
78704;SHT31;68034;51.966;5.676;2023-05-07T01:34:04;17.9;70.0
78704;SHT31;68034;51.966;5.676;2023-05-07T01:36:33;17.8;69.7
78704;SHT31;68034;51.966;5.676;2023-05-07T01:39:03;17.8;69.8
78704;SHT31;68034;51.966;5.676;2023-05-07T01:41:32;17.8;70.0
78704;SHT31;68034;51.966;5.676;2023-05-07T01:44:03;17.8;69.8
78704;SHT31;68034;51.966;5.676;2023-05-07T01:46:35;17.8;70.0
78704;SHT31;68034;51.966;5.676;2023-05-07T01:49:04;17.8;70.4
78704;SHT31;68034;51.966;5.676;2023-05-07T01:51:33;17.8;70.0
78704;SHT31;68034;51.966;5.676;2023-05-07T01:54:02;17.8;70.1
78704;SHT31;68034;51.966;5.676;2023-05-07T01:56:31;17.8;70.0
78704;SHT31;68034;51.966;5.676;2023-05-07T01:59:02;17.8;69.7
78704;SHT31;68034;51.966;5.676;2023-05-07T02:01:31;17.7;70.4
78704;SHT31;68034;51.966;5.676;2023-05-07T02:04:00;17.8;70.4
78704;SHT31;68034;51.966;5.676;2023-05-07T02:06:28;17.8;70.3
78704;SHT31;68034;51.966;5.676;2023-05-07T02:08:57;17.8;69.7
78704;SHT31;68034;51.966;5.676;2023-05-07T02:11:26;17.8;69.9
78704;SHT31;68034;51.966;5.676;2023-05-07T02:13:56;17.8;70.2
78704;SHT31;68034;51.966;5.676;2023-05-07T02:16:27;17.8;70.4
78704;SHT31;68034;51.966;5.676;2023-05-07T02:18:55;17.8;70.1
78704;SHT31;68034;51.966;5.676;2023-05-07T02:21:24;17.8;70.7
78704;SHT31;68034;51.966;5.676;2023-05-07T02:23:53;17.8;70.3
78704;SHT31;68034;51.966;5.676;2023-05-07T02:26:22;17.8;70.2
78704;SHT31;68034;51.966;5.676;2023-05-07T02:28:52;17.8;70.0
78704;SHT31;68034;51.966;5.676;2023-05-07T02:31:20;17.8;69.3
78704;SHT31;68034;51.966;5.676;2023-05-07T02:33:49;17.8;69.4
78704;SHT31;68034;51.966;5.676;2023-05-07T02:36:20;17.7;69.5
78704;SHT31;68034;51.966;5.676;2023-05-07T02:38:53;17.7;69.6
78704;SHT31;68034;51.966;5.676;2023-05-07T02:41:21;17.7;69.6
78704;SHT31;68034;51.966;5.676;2023-05-07T02:43:50;17.7;70.1
78704;SHT31;68034;51.966;5.676;2023-05-07T02:46:22;17.7;69.9
78704;SHT31;68034;51.966;5.676;2023-05-07T02:48:50;17.7;70.6
78704;SHT31;68034;51.966;5.676;2023-05-07T02:51:20;17.7;70.7
78704;SHT31;68034;51.966;5.676;2023-05-07T02:53:49;17.7;70.7
78704;SHT31;68034;51.966;5.676;2023-05-07T02:56:18;17.6;70.8
78704;SHT31;68034;51.966;5.676;2023-05-07T02:58:47;17.6;70.4
78704;SHT31;68034;51.966;5.676;2023-05-07T03:01:16;17.6;70.7
78704;SHT31;68034;51.966;5.676;2023-05-07T03:03:45;17.6;70.8
78704;SHT31;68034;51.966;5.676;2023-05-07T03:06:13;17.5;70.5
78704;SHT31;68034;51.966;5.676;2023-05-07T03:08:44;17.5;70.8
78704;SHT31;68034;51.966;5.676;2023-05-07T03:11:13;17.5;69.4
78704;SHT31;68034;51.966;5.676;2023-05-07T03:13:41;17.5;71.2
78704;SHT31;68034;51.966;5.676;2023-05-07T03:16:10;17.5;71.6
78704;SHT31;68034;51.966;5.676;2023-05-07T03:18:39;17.5;69.6
78704;SHT31;68034;51.966;5.676;2023-05-07T03:21:10;17.5;69.3
78704;SHT31;68034;51.966;5.676;2023-05-07T03:23:39;17.5;69.3
78704;SHT31;68034;51.966;5.676;2023-05-07T03:26:09;17.5;68.7
78704;SHT31;68034;51.966;5.676;2023-05-07T03:28:38;17.5;69.2
78704;SHT31;68034;51.966;5.676;2023-05-07T03:31:07;17.5;68.8
78704;SHT31;68034;51.966;5.676;2023-05-07T03:33:49;17.5;68.8
78704;SHT31;68034;51.966;5.676;2023-05-07T03:36:12;17.5;69.1
78704;SHT31;68034;51.966;5.676;2023-05-07T03:38:41;17.5;69.4
78704;SHT31;68034;51.966;5.676;2023-05-07T03:41:11;17.5;69.2
78704;SHT31;68034;51.966;5.676;2023-05-07T03:43:39;17.5;69.6
78704;SHT31;68034;51.966;5.676;2023-05-07T03:46:11;17.5;69.6
78704;SHT31;68034;51.966;5.676;2023-05-07T03:48:40;17.5;69.9
78704;SHT31;68034;51.966;5.676;2023-05-07T03:51:09;17.5;69.6
78704;SHT31;68034;51.966;5.676;2023-05-07T03:53:37;17.5;69.8
78704;SHT31;68034;51.966;5.676;2023-05-07T03:56:06;17.5;69.7
78704;SHT31;68034;51.966;5.676;2023-05-07T03:58:34;17.4;70.1
78704;SHT31;68034;51.966;5.676;2023-05-07T04:01:03;17.4;69.9
78704;SHT31;68034;51.966;5.676;2023-05-07T04:03:33;17.4;70.4
78704;SHT31;68034;51.966;5.676;2023-05-07T04:06:07;17.4;69.9
78704;SHT31;68034;51.966;5.676;2023-05-07T04:08:40;17.4;70.2
78704;SHT31;68034;51.966;5.676;2023-05-07T04:11:10;17.4;69.9
78704;SHT31;68034;51.966;5.676;2023-05-07T04:13:41;17.4;70.2
78704;SHT31;68034;51.966;5.676;2023-05-07T04:16:10;17.4;70.4
78704;SHT31;68034;51.966;5.676;2023-05-07T04:18:40;17.4;70.2
78704;SHT31;68034;51.966;5.676;2023-05-07T04:21:16;17.4;70.5
78704;SHT31;68034;51.966;5.676;2023-05-07T04:23:45;17.4;70.1
78704;SHT31;68034;51.966;5.676;2023-05-07T04:26:15;17.4;70.6
78704;SHT31;68034;51.966;5.676;2023-05-07T04:28:44;17.5;70.2
78704;SHT31;68034;51.966;5.676;2023-05-07T04:31:13;17.5;69.9
78704;SHT31;68034;51.966;5.676;2023-05-07T04:33:44;17.5;70.2
78704;SHT31;68034;51.966;5.676;2023-05-07T04:36:13;17.5;70.1
78704;SHT31;68034;51.966;5.676;2023-05-07T04:38:41;17.5;70.3
78704;SHT31;68034;51.966;5.676;2023-05-07T04:41:12;17.5;70.0
78704;SHT31;68034;51.966;5.676;2023-05-07T04:43:41;17.5;70.2
78704;SHT31;68034;51.966;5.676;2023-05-07T04:46:12;17.5;70.5
78704;SHT31;68034;51.966;5.676;2023-05-07T04:48:40;17.5;70.9
78704;SHT31;68034;51.966;5.676;2023-05-07T04:51:09;17.5;70.9
78704;SHT31;68034;51.966;5.676;2023-05-07T04:53:38;17.5;71.3
78704;SHT31;68034;51.966;5.676;2023-05-07T04:56:07;17.4;70.9
78704;SHT31;68034;51.966;5.676;2023-05-07T04:58:37;17.4;70.8
78704;SHT31;68034;51.966;5.676;2023-05-07T05:01:06;17.4;71.1
78704;SHT31;68034;51.966;5.676;2023-05-07T05:03:35;17.4;70.9
78704;SHT31;68034;51.966;5.676;2023-05-07T05:06:05;17.4;71.0
78704;SHT31;68034;51.966;5.676;2023-05-07T05:08:36;17.4;71.1
78704;SHT31;68034;51.966;5.676;2023-05-07T05:11:05;17.4;71.4
78704;SHT31;68034;51.966;5.676;2023-05-07T05:13:34;17.3;71.1
78704;SHT31;68034;51.966;5.676;2023-05-07T05:16:02;17.3;71.4
78704;SHT31;68034;51.966;5.676;2023-05-07T05:18:32;17.3;71.7
78704;SHT31;68034;51.966;5.676;2023-05-07T05:21:01;17.3;71.9
78704;SHT31;68034;51.966;5.676;2023-05-07T05:23:29;17.3;71.7
78704;SHT31;68034;51.966;5.676;2023-05-07T05:25:58;17.2;72.1
78704;SHT31;68034;51.966;5.676;2023-05-07T05:28:27;17.2;72.1
78704;SHT31;68034;51.966;5.676;2023-05-07T05:30:56;17.2;72.3
78704;SHT31;68034;51.966;5.676;2023-05-07T05:33:24;17.2;72.3
78704;SHT31;68034;51.966;5.676;2023-05-07T05:35:54;17.2;72.5
78704;SHT31;68034;51.966;5.676;2023-05-07T05:38:22;17.2;72.5
78704;SHT31;68034;51.966;5.676;2023-05-07T05:40:52;17.2;72.8
78704;SHT31;68034;51.966;5.676;2023-05-07T05:43:21;17.2;72.9
78704;SHT31;68034;51.966;5.676;2023-05-07T05:45:49;17.2;73.0
78704;SHT31;68034;51.966;5.676;2023-05-07T05:48:20;17.2;72.9
78704;SHT31;68034;51.966;5.676;2023-05-07T05:50:54;17.2;72.9
78704;SHT31;68034;51.966;5.676;2023-05-07T05:53:25;17.2;73.2
78704;SHT31;68034;51.966;5.676;2023-05-07T05:55:54;17.2;73.2
78704;SHT31;68034;51.966;5.676;2023-05-07T05:58:22;17.2;73.2
78704;SHT31;68034;51.966;5.676;2023-05-07T06:00:56;17.2;73.4
78704;SHT31;68034;51.966;5.676;2023-05-07T06:03:25;17.2;73.5
78704;SHT31;68034;51.966;5.676;2023-05-07T06:05:53;17.2;73.4
78704;SHT31;68034;51.966;5.676;2023-05-07T06:08:24;17.2;73.2
78704;SHT31;68034;51.966;5.676;2023-05-07T06:10:53;17.3;73.1
78704;SHT31;68034;51.966;5.676;2023-05-07T06:13:22;17.3;73.2
78704;SHT31;68034;51.966;5.676;2023-05-07T06:15:53;17.3;73.0
78704;SHT31;68034;51.966;5.676;2023-05-07T06:18:24;17.3;73.0
78704;SHT31;68034;51.966;5.676;2023-05-07T06:20:53;17.3;73.1
78704;SHT31;68034;51.966;5.676;2023-05-07T06:23:22;17.3;73.1
78704;SHT31;68034;51.966;5.676;2023-05-07T06:25:52;17.4;73.0
78704;SHT31;68034;51.966;5.676;2023-05-07T06:28:20;17.4;73.3
78704;SHT31;68034;51.966;5.676;2023-05-07T06:30:54;17.4;73.3
78704;SHT31;68034;51.966;5.676;2023-05-07T06:33:24;17.4;73.1
78704;SHT31;68034;51.966;5.676;2023-05-07T06:35:55;17.4;72.6
78704;SHT31;68034;51.966;5.676;2023-05-07T06:38:23;17.4;72.5
78704;SHT31;68034;51.966;5.676;2023-05-07T06:40:52;17.4;72.4
78704;SHT31;68034;51.966;5.676;2023-05-07T06:43:22;17.5;72.6
78704;SHT31;68034;51.966;5.676;2023-05-07T06:45:51;17.5;72.5
78704;SHT31;68034;51.966;5.676;2023-05-07T06:48:19;17.5;72.6
78704;SHT31;68034;51.966;5.676;2023-05-07T06:50:48;17.5;72.8
78704;SHT31;68034;51.966;5.676;2023-05-07T06:53:16;17.5;72.6
78704;SHT31;68034;51.966;5.676;2023-05-07T06:55:45;17.5;72.8
78704;SHT31;68034;51.966;5.676;2023-05-07T06:58:14;17.5;73.2
78704;SHT31;68034;51.966;5.676;2023-05-07T07:00:55;17.6;73.2
78704;SHT31;68034;51.966;5.676;2023-05-07T07:03:24;17.6;72.8
78704;SHT31;68034;51.966;5.676;2023-05-07T07:05:53;17.6;72.6
78704;SHT31;68034;51.966;5.676;2023-05-07T07:08:22;17.7;72.3
78704;SHT31;68034;51.966;5.676;2023-05-07T07:10:53;17.7;72.6
78704;SHT31;68034;51.966;5.676;2023-05-07T07:13:23;17.7;72.6
78704;SHT31;68034;51.966;5.676;2023-05-07T07:15:54;17.8;72.5
78704;SHT31;68034;51.966;5.676;2023-05-07T07:18:22;17.8;72.4
78704;SHT31;68034;51.966;5.676;2023-05-07T07:20:53;17.8;72.4
78704;SHT31;68034;51.966;5.676;2023-05-07T07:23:23;17.8;72.1
78704;SHT31;68034;51.966;5.676;2023-05-07T07:25:53;17.8;72.0
78704;SHT31;68034;51.966;5.676;2023-05-07T07:28:22;17.8;72.0
78704;SHT31;68034;51.966;5.676;2023-05-07T07:30:51;17.8;72.3
78704;SHT31;68034;51.966;5.676;2023-05-07T07:33:20;17.9;72.3
78704;SHT31;68034;51.966;5.676;2023-05-07T07:35:51;17.9;72.3
78704;SHT31;68034;51.966;5.676;2023-05-07T07:38:24;17.9;72.8
78704;SHT31;68034;51.966;5.676;2023-05-07T07:40:52;17.9;73.1
78704;SHT31;68034;51.966;5.676;2023-05-07T07:43:21;17.9;73.6
78704;SHT31;68034;51.966;5.676;2023-05-07T07:45:50;17.9;73.9
78704;SHT31;68034;51.966;5.676;2023-05-07T07:48:21;17.9;74.3
78704;SHT31;68034;51.966;5.676;2023-05-07T07:50:51;17.9;74.6
78704;SHT31;68034;51.966;5.676;2023-05-07T07:53:21;17.9;74.8
78704;SHT31;68034;51.966;5.676;2023-05-07T07:55:50;17.9;75.0
78704;SHT31;68034;51.966;5.676;2023-05-07T07:58:18;18.0;74.2
78704;SHT31;68034;51.966;5.676;2023-05-07T08:00:51;18.0;74.1
78704;SHT31;68034;51.966;5.676;2023-05-07T08:03:22;18.0;74.3
78704;SHT31;68034;51.966;5.676;2023-05-07T08:05:51;18.1;73.9
78704;SHT31;68034;51.966;5.676;2023-05-07T08:08:22;18.1;73.3
78704;SHT31;68034;51.966;5.676;2023-05-07T08:10:51;18.1;73.1
78704;SHT31;68034;51.966;5.676;2023-05-07T08:13:24;18.1;73.3
78704;SHT31;68034;51.966;5.676;2023-05-07T08:15:53;18.1;72.9
78704;SHT31;68034;51.966;5.676;2023-05-07T08:18:21;18.2;72.3
78704;SHT31;68034;51.966;5.676;2023-05-07T08:20:51;18.2;72.1
78704;SHT31;68034;51.966;5.676;2023-05-07T08:23:20;18.2;72.4
78704;SHT31;68034;51.966;5.676;2023-05-07T08:25:49;18.3;71.8
78704;SHT31;68034;51.966;5.676;2023-05-07T08:28:18;18.3;71.7
78704;SHT31;68034;51.966;5.676;2023-05-07T08:30:48;18.3;72.5
78704;SHT31;68034;51.966;5.676;2023-05-07T08:33:16;18.3;72.2
78704;SHT31;68034;51.966;5.676;2023-05-07T08:35:45;18.4;71.3
78704;SHT31;68034;51.966;5.676;2023-05-07T08:38:13;18.4;71.8
78704;SHT31;68034;51.966;5.676;2023-05-07T08:40:42;18.4;71.2
78704;SHT31;68034;51.966;5.676;2023-05-07T08:43:12;18.5;71.7
78704;SHT31;68034;51.966;5.676;2023-05-07T08:45:41;18.6;71.4
78704;SHT31;68034;51.966;5.676;2023-05-07T08:48:15;18.6;71.5
78704;SHT31;68034;51.966;5.676;2023-05-07T08:50:44;18.6;72.0
78704;SHT31;68034;51.966;5.676;2023-05-07T08:53:15;18.7;71.9
78704;SHT31;68034;51.966;5.676;2023-05-07T08:55:45;18.8;72.2
78704;SHT31;68034;51.966;5.676;2023-05-07T08:58:14;18.8;71.4
78704;SHT31;68034;51.966;5.676;2023-05-07T09:00:43;18.9;70.4
78704;SHT31;68034;51.966;5.676;2023-05-07T09:03:12;18.9;70.0
78704;SHT31;68034;51.966;5.676;2023-05-07T09:05:40;19.0;70.3
78704;SHT31;68034;51.966;5.676;2023-05-07T09:08:15;19.0;69.9
78704;SHT31;68034;51.966;5.676;2023-05-07T09:10:44;19.1;70.1
78704;SHT31;68034;51.966;5.676;2023-05-07T09:13:15;19.1;70.0
78704;SHT31;68034;51.966;5.676;2023-05-07T09:15:45;19.2;69.8
78704;SHT31;68034;51.966;5.676;2023-05-07T09:18:13;19.3;69.2
78704;SHT31;68034;51.966;5.676;2023-05-07T09:20:44;19.4;69.7
78704;SHT31;68034;51.966;5.676;2023-05-07T09:23:14;19.4;68.9
78704;SHT31;68034;51.966;5.676;2023-05-07T09:25:42;19.5;68.7
78704;SHT31;68034;51.966;5.676;2023-05-07T09:28:13;19.5;68.9
78704;SHT31;68034;51.966;5.676;2023-05-07T09:30:42;19.6;67.8
78704;SHT31;68034;51.966;5.676;2023-05-07T09:33:10;19.6;68.3
78704;SHT31;68034;51.966;5.676;2023-05-07T09:35:39;19.7;67.3
78704;SHT31;68034;51.966;5.676;2023-05-07T09:38:08;19.8;67.2
78704;SHT31;68034;51.966;5.676;2023-05-07T09:40:37;19.8;66.2
78704;SHT31;68034;51.966;5.676;2023-05-07T09:43:13;19.9;65.9
78704;SHT31;68034;51.966;5.676;2023-05-07T09:45:42;19.9;65.0
78704;SHT31;68034;51.966;5.676;2023-05-07T09:48:16;20.0;65.9
78704;SHT31;68034;51.966;5.676;2023-05-07T09:50:49;20.0;65.5
78704;SHT31;68034;51.966;5.676;2023-05-07T09:53:20;20.1;64.0
78704;SHT31;68034;51.966;5.676;2023-05-07T09:55:51;20.1;63.6
78704;SHT31;68034;51.966;5.676;2023-05-07T09:58:21;20.2;64.8
78704;SHT31;68034;51.966;5.676;2023-05-07T10:00:52;20.2;63.7
78704;SHT31;68034;51.966;5.676;2023-05-07T10:03:22;20.3;63.2
78704;SHT31;68034;51.966;5.676;2023-05-07T10:05:53;20.3;63.6
78704;SHT31;68034;51.966;5.676;2023-05-07T10:08:23;20.3;63.6
78704;SHT31;68034;51.966;5.676;2023-05-07T10:10:52;20.3;63.4
78704;SHT31;68034;51.966;5.676;2023-05-07T10:13:21;20.4;63.8
78704;SHT31;68034;51.966;5.676;2023-05-07T10:15:50;20.4;63.5
78704;SHT31;68034;51.966;5.676;2023-05-07T10:18:20;20.4;63.8
78704;SHT31;68034;51.966;5.676;2023-05-07T10:21:07;20.4;63.5
78704;SHT31;68034;51.966;5.676;2023-05-07T10:23:35;20.5;63.7
78704;SHT31;68034;51.966;5.676;2023-05-07T10:26:06;20.5;63.9
78704;SHT31;68034;51.966;5.676;2023-05-07T10:28:40;20.5;64.3
78704;SHT31;68034;51.966;5.676;2023-05-07T10:31:24;20.5;64.3
78704;SHT31;68034;51.966;5.676;2023-05-07T10:33:55;20.6;64.7
78704;SHT31;68034;51.966;5.676;2023-05-07T10:36:26;20.6;63.7
78704;SHT31;68034;51.966;5.676;2023-05-07T10:38:55;20.6;64.1
78704;SHT31;68034;51.966;5.676;2023-05-07T10:41:24;20.7;64.5
78704;SHT31;68034;51.966;5.676;2023-05-07T10:43:52;20.7;64.1
78704;SHT31;68034;51.966;5.676;2023-05-07T10:46:22;20.8;63.6
78704;SHT31;68034;51.966;5.676;2023-05-07T10:49:09;20.9;63.9
78704;SHT31;68034;51.966;5.676;2023-05-07T10:51:40;20.9;63.6
78704;SHT31;68034;51.966;5.676;2023-05-07T10:54:24;21.0;64.0
78704;SHT31;68034;51.966;5.676;2023-05-07T10:56:52;21.0;62.7
78704;SHT31;68034;51.966;5.676;2023-05-07T10:59:35;21.1;63.0
78704;SHT31;68034;51.966;5.676;2023-05-07T11:02:09;21.2;63.9
78704;SHT31;68034;51.966;5.676;2023-05-07T11:04:41;21.2;61.9
78704;SHT31;68034;51.966;5.676;2023-05-07T11:07:28;21.3;61.8
78704;SHT31;68034;51.966;5.676;2023-05-07T11:09:59;21.4;61.3
78704;SHT31;68034;51.966;5.676;2023-05-07T11:12:50;21.5;61.7
78704;SHT31;68034;51.966;5.676;2023-05-07T11:15:42;21.6;60.3
78704;SHT31;68034;51.966;5.676;2023-05-07T11:18:13;21.6;60.7
78704;SHT31;68034;51.966;5.676;2023-05-07T11:20:51;21.7;61.3
78704;SHT31;68034;51.966;5.676;2023-05-07T11:23:57;21.8;61.5
78704;SHT31;68034;51.966;5.676;2023-05-07T11:26:29;21.9;60.1
78704;SHT31;68034;51.966;5.676;2023-05-07T11:28:59;22.0;60.3
78704;SHT31;68034;51.966;5.676;2023-05-07T11:31:28;22.1;60.0
78704;SHT31;68034;51.966;5.676;2023-05-07T11:33:59;22.2;59.9
78704;SHT31;68034;51.966;5.676;2023-05-07T11:36:32;22.3;59.5
78704;SHT31;68034;51.966;5.676;2023-05-07T11:39:02;22.3;59.4
78704;SHT31;68034;51.966;5.676;2023-05-07T11:41:37;22.4;60.5
78704;SHT31;68034;51.966;5.676;2023-05-07T11:44:09;22.4;59.0
78704;SHT31;68034;51.966;5.676;2023-05-07T11:46:43;22.4;60.2
78704;SHT31;68034;51.966;5.676;2023-05-07T11:49:20;22.5;59.6
78704;SHT31;68034;51.966;5.676;2023-05-07T11:51:53;22.5;58.9
78704;SHT31;68034;51.966;5.676;2023-05-07T11:54:26;22.5;59.8
78704;SHT31;68034;51.966;5.676;2023-05-07T11:57:00;22.6;59.2
78704;SHT31;68034;51.966;5.676;2023-05-07T11:59:42;22.6;57.3
78704;SHT31;68034;51.966;5.676;2023-05-07T12:02:13;22.7;57.1
78704;SHT31;68034;51.966;5.676;2023-05-07T12:04:44;22.7;57.7
78704;SHT31;68034;51.966;5.676;2023-05-07T12:07:23;22.8;57.9
78704;SHT31;68034;51.966;5.676;2023-05-07T12:10:03;22.8;57.6
78704;SHT31;68034;51.966;5.676;2023-05-07T12:12:40;22.9;57.4
78704;SHT31;68034;51.966;5.676;2023-05-07T12:15:10;22.9;58.0
78704;SHT31;68034;51.966;5.676;2023-05-07T12:17:39;23.0;56.8
78704;SHT31;68034;51.966;5.676;2023-05-07T12:20:17;23.0;57.5
78704;SHT31;68034;51.966;5.676;2023-05-07T12:22:50;23.1;57.2
78704;SHT31;68034;51.966;5.676;2023-05-07T12:25:27;23.2;56.0
78704;SHT31;68034;51.966;5.676;2023-05-07T12:28:00;23.3;55.9
78704;SHT31;68034;51.966;5.676;2023-05-07T12:30:31;23.4;56.2
78704;SHT31;68034;51.966;5.676;2023-05-07T12:33:01;23.6;55.0
78704;SHT31;68034;51.966;5.676;2023-05-07T12:35:31;23.7;56.0
78704;SHT31;68034;51.966;5.676;2023-05-07T12:38:01;23.8;55.4
78704;SHT31;68034;51.966;5.676;2023-05-07T12:40:38;23.9;54.2
78704;SHT31;68034;51.966;5.676;2023-05-07T12:43:07;24.1;55.2
78704;SHT31;68034;51.966;5.676;2023-05-07T12:45:39;24.2;54.0
78704;SHT31;68034;51.966;5.676;2023-05-07T12:48:10;24.3;55.6
78704;SHT31;68034;51.966;5.676;2023-05-07T12:50:39;24.4;54.0
78704;SHT31;68034;51.966;5.676;2023-05-07T12:53:11;24.5;53.3
78704;SHT31;68034;51.966;5.676;2023-05-07T12:55:47;24.5;53.2
78704;SHT31;68034;51.966;5.676;2023-05-07T12:58:18;24.6;52.6
78704;SHT31;68034;51.966;5.676;2023-05-07T13:00:50;24.7;51.9
78704;SHT31;68034;51.966;5.676;2023-05-07T13:03:24;24.8;52.6
78704;SHT31;68034;51.966;5.676;2023-05-07T13:05:54;24.9;51.6
78704;SHT31;68034;51.966;5.676;2023-05-07T13:08:31;24.9;52.2
78704;SHT31;68034;51.966;5.676;2023-05-07T13:11:03;24.8;51.2
78704;SHT31;68034;51.966;5.676;2023-05-07T13:13:33;24.7;51.5
78704;SHT31;68034;51.966;5.676;2023-05-07T13:16:04;24.6;50.2
78704;SHT31;68034;51.966;5.676;2023-05-07T13:18:33;24.5;49.8
78704;SHT31;68034;51.966;5.676;2023-05-07T13:21:03;24.5;51.2
78704;SHT31;68034;51.966;5.676;2023-05-07T13:23:32;24.4;53.2
78704;SHT31;68034;51.966;5.676;2023-05-07T13:26:01;24.4;51.6
78704;SHT31;68034;51.966;5.676;2023-05-07T13:28:29;24.4;51.7
78704;SHT31;68034;51.966;5.676;2023-05-07T13:31:00;24.4;51.9
78704;SHT31;68034;51.966;5.676;2023-05-07T13:33:29;24.4;51.9
78704;SHT31;68034;51.966;5.676;2023-05-07T13:35:58;24.4;53.3
78704;SHT31;68034;51.966;5.676;2023-05-07T13:38:27;24.4;51.4
78704;SHT31;68034;51.966;5.676;2023-05-07T13:40:56;24.4;51.7
78704;SHT31;68034;51.966;5.676;2023-05-07T13:43:25;24.5;52.1
78704;SHT31;68034;51.966;5.676;2023-05-07T13:45:53;24.6;51.7
78704;SHT31;68034;51.966;5.676;2023-05-07T13:48:22;24.8;52.0
78704;SHT31;68034;51.966;5.676;2023-05-07T13:50:51;24.9;52.5
78704;SHT31;68034;51.966;5.676;2023-05-07T13:53:20;25.0;51.2
78704;SHT31;68034;51.966;5.676;2023-05-07T13:55:49;25.1;50.5
78704;SHT31;68034;51.966;5.676;2023-05-07T13:58:20;25.2;50.3
78704;SHT31;68034;51.966;5.676;2023-05-07T14:00:51;25.2;50.4
78704;SHT31;68034;51.966;5.676;2023-05-07T14:03:20;25.2;50.1
78704;SHT31;68034;51.966;5.676;2023-05-07T14:05:51;25.2;49.7
78704;SHT31;68034;51.966;5.676;2023-05-07T14:08:23;25.2;50.1
78704;SHT31;68034;51.966;5.676;2023-05-07T14:10:54;25.2;49.8
78704;SHT31;68034;51.966;5.676;2023-05-07T14:13:23;25.1;50.2
78704;SHT31;68034;51.966;5.676;2023-05-07T14:15:53;25.1;50.3
78704;SHT31;68034;51.966;5.676;2023-05-07T14:18:22;25.0;51.3
78704;SHT31;68034;51.966;5.676;2023-05-07T14:20:51;25.0;51.3
78704;SHT31;68034;51.966;5.676;2023-05-07T14:23:20;25.0;52.1
78704;SHT31;68034;51.966;5.676;2023-05-07T14:25:53;24.9;51.3
78704;SHT31;68034;51.966;5.676;2023-05-07T14:28:23;24.9;51.7
78704;SHT31;68034;51.966;5.676;2023-05-07T14:30:53;24.9;51.1
78704;SHT31;68034;51.966;5.676;2023-05-07T14:33:22;24.8;50.9
78704;SHT31;68034;51.966;5.676;2023-05-07T14:35:51;24.8;51.2
78704;SHT31;68034;51.966;5.676;2023-05-07T14:38:20;24.8;51.5
78704;SHT31;68034;51.966;5.676;2023-05-07T14:40:49;24.7;51.9
78704;SHT31;68034;51.966;5.676;2023-05-07T14:43:18;24.7;51.1
78704;SHT31;68034;51.966;5.676;2023-05-07T14:45:49;24.6;52.1
78704;SHT31;68034;51.966;5.676;2023-05-07T14:48:18;24.6;52.8
78704;SHT31;68034;51.966;5.676;2023-05-07T14:50:48;24.6;52.9
78704;SHT31;68034;51.966;5.676;2023-05-07T14:53:17;24.5;52.2
78704;SHT31;68034;51.966;5.676;2023-05-07T14:55:46;24.5;51.4
78704;SHT31;68034;51.966;5.676;2023-05-07T14:58:16;24.5;51.9
78704;SHT31;68034;51.966;5.676;2023-05-07T15:00:44;24.6;52.4
78704;SHT31;68034;51.966;5.676;2023-05-07T15:03:14;24.7;51.8
78704;SHT31;68034;51.966;5.676;2023-05-07T15:05:43;24.7;51.8
78704;SHT31;68034;51.966;5.676;2023-05-07T15:08:14;24.8;50.9
78704;SHT31;68034;51.966;5.676;2023-05-07T15:10:43;24.8;51.5
78704;SHT31;68034;51.966;5.676;2023-05-07T15:13:12;24.7;52.7
78704;SHT31;68034;51.966;5.676;2023-05-07T15:15:42;24.7;49.4
78704;SHT31;68034;51.966;5.676;2023-05-07T15:18:19;24.6;49.6
78704;SHT31;68034;51.966;5.676;2023-05-07T15:20:50;24.4;49.4
78704;SHT31;68034;51.966;5.676;2023-05-07T15:23:26;24.2;50.4
78704;SHT31;68034;51.966;5.676;2023-05-07T15:26:05;24.0;49.5
78704;SHT31;68034;51.966;5.676;2023-05-07T15:28:37;23.8;50.0
78704;SHT31;68034;51.966;5.676;2023-05-07T15:31:07;23.7;50.2
78704;SHT31;68034;51.966;5.676;2023-05-07T15:33:36;23.5;49.5
78704;SHT31;68034;51.966;5.676;2023-05-07T15:36:05;23.3;50.0
78704;SHT31;68034;51.966;5.676;2023-05-07T15:38:34;23.2;51.2
78704;SHT31;68034;51.966;5.676;2023-05-07T15:41:09;23.0;52.3
78704;SHT31;68034;51.966;5.676;2023-05-07T15:43:48;22.8;55.7
78704;SHT31;68034;51.966;5.676;2023-05-07T15:46:19;22.6;60.5
78704;SHT31;68034;51.966;5.676;2023-05-07T15:48:50;22.2;62.3
78704;SHT31;68034;51.966;5.676;2023-05-07T15:51:19;21.9;63.9
78704;SHT31;68034;51.966;5.676;2023-05-07T15:53:49;21.7;65.3
78704;SHT31;68034;51.966;5.676;2023-05-07T15:56:19;21.4;66.9
78704;SHT31;68034;51.966;5.676;2023-05-07T15:58:48;21.3;68.9
78704;SHT31;68034;51.966;5.676;2023-05-07T16:01:17;21.2;67.6
78704;SHT31;68034;51.966;5.676;2023-05-07T16:03:45;21.1;69.3
78704;SHT31;68034;51.966;5.676;2023-05-07T16:06:14;21.0;70.6
78704;SHT31;68034;51.966;5.676;2023-05-07T16:08:43;20.9;67.8
78704;SHT31;68034;51.966;5.676;2023-05-07T16:11:12;20.8;67.9
78704;SHT31;68034;51.966;5.676;2023-05-07T16:13:41;20.6;68.1
78704;SHT31;68034;51.966;5.676;2023-05-07T16:16:12;20.4;70.3
78704;SHT31;68034;51.966;5.676;2023-05-07T16:18:41;20.4;70.9
78704;SHT31;68034;51.966;5.676;2023-05-07T16:21:09;20.3;70.1
78704;SHT31;68034;51.966;5.676;2023-05-07T16:23:38;20.2;70.9